logo
App data

Rise of Venice

Venice was at the peak of its power during the Renaissance and was viewed as a city of decadence, beauty and intrigue. Renowned as the linchpin of civilization and the cultural centre of Europe, Venice was the most important trading post between Western Europe and the eastern stretch of the Mediterranean Sea.
Store | Hub | SteamDB | Site
Developer: Publisher: Kalypso Media Digital
Genre: Simulation, Strategy
Languages: English, French, German, Italian, Spanish - Spain, Russian, Portuguese - Brazil, Korean, Polish, Traditional Chinese
Tags: Strategy (56), Simulation (48), Trading (31), Economy (30), Historical (28), Management (26), Singleplayer (13)
Category: Single-player, Multi-player, Steam Achievements, Steam Trading Cards, Steam Cloud
Release date: Sep 27, 2013
Price: $19.99
Old userscore: 55% Metascore: 66%
Owners: 50,000 .. 100,000
Followers: 1,938
Peak concurrent players yesterday: 23
Playtime total: 09:24 (average) 09:24 (median)

Steam Spy is still in beta, so expect major bugs.

Owners data:

Access restricted.

This feature is only available to users with special access rights. Sorry.

If you want to proceed, you need to register or log in first and then back Steam Spy on Patreon. Look for Indie or Pro pledge.

Don't forget to use the same email as on Steam Spy!

Audience in 2 weeks:

Access restricted.

This feature is only available to users with special access rights. Sorry.

If you want to proceed, you need to register or log in first and then back Steam Spy on Patreon. Look for Indie or Pro pledge.

Don't forget to use the same email as on Steam Spy!

Peak daily concurrent players:

CCU data courtesy of SteamDB. Used with permission.

Hourly concurrent players:

Daily Twitch stats:

Hourly Twitch stats:

Followers over time

Access restricted.

This feature is only available to users with special access rights. Sorry.

If you want to proceed, you need to register or log in first and then back Steam Spy on Patreon. Look for Indie or Pro pledge.

Don't forget to use the same email as on Steam Spy!

Views for top 50 videos on YouTube for this game:

YouTube's Terms of Service

The views data is based on top 50 videos uploaded last week. Actual number of views might be more than the number shown.

If the game has commonly used word as its name (like "FEAR" or "Volume") its number of Youtube views might be wrong.

Games similar to this one:

# Game Release date
Price
Score rank
(Userscore / Metascore)
Owners
Players
Playtime (Median)
1 The Entente Gold Jun 16, 2014 $1.99N/A (N/A)50,000 .. 100,0000%00:00 (00:00)
2 7,62 High Calibre Apr 30, 2014 $4.99N/A (N/A)50,000 .. 100,0000%00:00 (00:00)
3 Enemy Mind Jun 6, 2014 $9.99N/A (N/A)100,000 .. 200,0000%00:00 (00:00)
4 The Fall May 30, 2014 $9.99N/A (N/A/76%)200,000 .. 500,0000%00:00 (00:00)
5 Avoid - Sensory Overload Apr 8, 2014 $4.99N/A (N/A)20,000 .. 50,0000%00:00 (00:00)
6 Abalone Apr 23, 2014 $6.99N/A (N/A)20,000 .. 50,0000%00:00 (00:00)
7 8-Bit Commando Jun 2, 2014 $3.99N/A (N/A)50,000 .. 100,0000%00:00 (00:00)
8 Woolfe - The Red Hood Diaries Mar 17, 2015 $9.99N/A (N/A/55%)100,000 .. 200,0000%00:00 (00:00)
9 Strike Suit Zero: Director's Cut Apr 8, 2014 $19.99N/A (N/A)50,000 .. 100,0000%00:00 (00:00)
10 Strategic War in Europe Mar 21, 2014 $14.99N/A (N/A)20,000 .. 50,0000%00:00 (00:00)
11 Perimeter: Emperor's Testament May 22, 2014 $3.99N/A (N/A/72%)20,000 .. 50,0000%00:00 (00:00)
12 The Campaign Series: Fall Weiss May 30, 2014 $14.99N/A (N/A)20,000 .. 50,0000%00:00 (00:00)
13 Freight Tycoon Inc. Apr 3, 2014 $4.99N/A (N/A)20,000 .. 50,0000%00:00 (00:00)
14 Super Chibi Knight Jun 24, 2015 $4.99N/A (N/A)50,000 .. 100,0000%00:00 (00:00)
15 Perimeter May 21, 2004 $3.99N/A (N/A/77%)20,000 .. 50,0000%00:00 (00:00)
16 Battleplan: American Civil War Jul 4, 2014 $9.99N/A (N/A/66%)100,000 .. 200,0000%00:00 (00:00)
17 Marauder Sep 10, 2009 $9.99N/A (N/A)50,000 .. 100,0000%00:00 (00:00)
18 Painkiller Hell & Damnation Oct 31, 2012 $19.99N/A (N/A/64%)500,000 .. 1,000,0000%00:00 (00:00)
19 Men of War: Condemned Heroes Apr 12, 2012 $7.99N/A (N/A/57%)100,000 .. 200,0000%00:00 (00:00)
20 Zeno Clash 2 Apr 30, 2013 $14.99N/A (N/A)200,000 .. 500,0000%00:00 (00:00)
21 Jagged Alliance: Crossfire Aug 24, 2012 $14.99N/A (N/A/63%)100,000 .. 200,0000%00:00 (00:00)
22 Fate of the World Feb 28, 2011 $9.99N/A (N/A/70%)50,000 .. 100,0000%00:00 (00:00)
23 Warlock 2: The Exiled Apr 10, 2014 $19.99N/A (N/A/73%)50,000 .. 100,0000%00:00 (00:00)
24 A.R.E.S.: Extinction Agenda Jan 19, 2011 $4.99N/A (N/A/68%)50,000 .. 100,0000%00:00 (00:00)
25 Civil War: Battle of Petersburg Feb 8, 2017 $0.99N/A (N/A)20,000 .. 50,0000%00:00 (00:00)
26 Stellar Impact Apr 12, 2012 $9.99N/A (N/A/74%)50,000 .. 100,0000%00:00 (00:00)
27 Demolition Inc. Sep 19, 2011 $5.99N/A (N/A)50,000 .. 100,0000%00:00 (00:00)
28 Castle Werewolf 3D Feb 7, 2017 $3.99N/A (N/A)20,000 .. 50,0000%00:00 (00:00)
29 Check vs Mate Aug 16, 2012 $19.99N/A (N/A/69%)20,000 .. 50,0000%00:00 (00:00)
30 Gatling Gears Aug 30, 2011 $9.99N/A (N/A)20,000 .. 50,0000%00:00 (00:00)
31 Defence to death May 11, 2017 $5.99N/A (N/A)20,000 .. 50,0000%00:00 (00:00)
32 Conflict Desert Storm May 28, 2012 $6.99N/A (N/A/56%)50,000 .. 100,0000%00:00 (00:00)
33 A Game of Dwarves Oct 23, 2012 $9.99N/A (N/A/60%)100,000 .. 200,0000%00:00 (00:00)
34 Tank Destroyer Mar 9, 2017 $0.99N/A (N/A)50,000 .. 100,0000%00:00 (00:00)
35 Conquest of Elysium 3 Oct 24, 2012 $9.99N/A (N/A)50,000 .. 100,0000%00:00 (00:00)
36 Dungeons - The Dark Lord Sep 27, 2011 $19.99N/A (N/A/72%)100,000 .. 200,0000%00:00 (00:00)
37 One Star Apr 17, 2017 $3.99N/A (N/A)20,000 .. 50,0000%00:00 (00:00)
38 Call of Duty: Black Ops - Mac Edition Sep 27, 2012 N/AN/A (N/A)50,000 .. 100,0000%00:00 (00:00)
39 Disciples III - Resurrection Oct 11, 2011 $14.99N/A (N/A/63%)100,000 .. 200,0000%00:00 (00:00)
40 Island Defense Jul 23, 2015 $1.99N/A (N/A)50,000 .. 100,0000%00:00 (00:00)
41 Pongo May 14, 2015 $0.99N/A (N/A)100,000 .. 200,0000%00:00 (00:00)
42 Tiki Man Jun 4, 2015 $2.99N/A (N/A)50,000 .. 100,0000%00:00 (00:00)
43 Blacksea Odyssey Jun 1, 2016 $9.99N/A (N/A/74%)20,000 .. 50,0000%00:00 (00:00)
44 Biodrone Battle Jul 16, 2015 $1.99N/A (N/A)100,000 .. 200,0000%00:00 (00:00)
45 Riddled Corpses Jun 2, 2015 $7.99N/A (N/A)20,000 .. 50,0000%00:00 (00:00)
46 Devils & Demons Oct 6, 2015 $9.99N/A (N/A)20,000 .. 50,0000%00:00 (00:00)
47 Gridberd Sep 7, 2015 $6.99N/A (N/A)200,000 .. 500,0000%00:00 (00:00)
48 Redemption: Saints And Sinners Nov 18, 2016 $0.99N/A (N/A)50,000 .. 100,0000%00:00 (00:00)
49 Gnumz: Masters of Defense Dec 21, 2015 $0.49N/A (N/A)100,000 .. 200,0000%00:00 (00:00)
50 TASTEE: Lethal Tactics May 10, 2016 $14.99N/A (N/A)20,000 .. 50,0000%00:00 (00:00)
51 Spooky Cats Jun 4, 2015 $2.99N/A (N/A)20,000 .. 50,0000%00:00 (00:00)
52 Disposable Heroes Oct 1, 2015 $0.79N/A (N/A)20,000 .. 50,0000%00:00 (00:00)
53 Cast of the Seven Godsends - Redux Jul 20, 2015 $9.99N/A (N/A)20,000 .. 50,0000%00:00 (00:00)
54 Zombie Zoeds May 20, 2015 $0.99N/A (N/A)200,000 .. 500,0000%00:00 (00:00)
55 Defend The Highlands Nov 6, 2015 $9.99N/A (N/A)100,000 .. 200,0000%00:00 (00:00)
56 Skyshine's BEDLAM Sep 16, 2015 $19.99N/A (N/A/67%)50,000 .. 100,0000%00:00 (00:00)
57 Brigade E5: New Jagged Union Oct 17, 2006 $3.99N/A (N/A/41%)0 .. 20,0000%00:00 (00:00)
58 Blue Estate The Game Apr 8, 2015 $12.99N/A (N/A/59%)50,000 .. 100,0000%00:00 (00:00)
59 Magnetic By Nature Nov 10, 2014 $9.99N/A (N/A)0 .. 20,0000%00:00 (00:00)
60 Heavy Fire: Afghanistan Aug 15, 2014 $2.99N/A (N/A)50,000 .. 100,0000%00:00 (00:00)
61 Viktor Jun 13, 2014 $7.99N/A (N/A)20,000 .. 50,0000%00:00 (00:00)
62 1849 May 8, 2014 $14.99N/A (N/A)20,000 .. 50,0000%00:00 (00:00)
63 Space Colony: Steam Edition Apr 30, 2015 $14.99N/A (N/A/74%)100,000 .. 200,0000%00:00 (00:00)
64 Royal Defense Nov 10, 2014 $4.99N/A (N/A)100,000 .. 200,0000%00:00 (00:00)
65 Orbital Gear Aug 7, 2014 $9.99N/A (N/A/59%)200,000 .. 500,0000%00:00 (00:00)
66 Elliot Quest Nov 10, 2014 $9.99N/A (N/A)20,000 .. 50,0000%00:00 (00:00)
67 The Few Jun 18, 2014 $7.99N/A (N/A)50,000 .. 100,0000%00:00 (00:00)
68 Spice Road Apr 24, 2014 $19.99N/A (N/A)0 .. 20,0000%00:00 (00:00)
69 Psichodelya Aug 8, 2014 $1.99N/A (N/A)50,000 .. 100,0000%00:00 (00:00)
70 Merchants of Kaidan Nov 10, 2014 $14.99N/A (N/A)100,000 .. 200,0000%00:00 (00:00)
71 Momodora III Jul 1, 2014 $1.99N/A (N/A)50,000 .. 100,0000%00:00 (00:00)
72 Olympia Rising Jul 23, 2015 $4.99N/A (N/A)20,000 .. 50,0000%00:00 (00:00)
73 Aeon Command Jul 3, 2014 $2.99N/A (N/A)20,000 .. 50,0000%00:00 (00:00)
74 Anomaly 2 May 15, 2013 $14.99N/A (N/A/77%)200,000 .. 500,0000%00:00 (00:00)
75 Retrovirus Jan 31, 2013 $9.99N/A (N/A/70%)20,000 .. 50,0000%00:00 (00:00)
76 Fist Puncher Jun 21, 2013 $9.99N/A (N/A/73%)20,000 .. 50,0000%00:00 (00:00)
77 Risk Jun 10, 2013 $9.99N/A (N/A)20,000 .. 50,0000%00:00 (00:00)
78 Jagged Alliance 2 - Wildfire Nov 16, 2012 $6.99N/A (N/A)500,000 .. 1,000,0000%00:00 (00:00)
79 Skulls of the Shogun Jul 29, 2013 $9.99N/A (N/A/72%)100,000 .. 200,0000%00:00 (00:00)
80 Gemini Wars Nov 2, 2012 $14.99N/A (N/A/53%)20,000 .. 50,0000%00:00 (00:00)
81 ShootMania Storm Apr 10, 2013 $19.99N/A (N/A/76%)50,000 .. 100,0000%00:00 (00:00)
82 Eufloria HD Oct 14, 2014 $14.99N/A (N/A)100,000 .. 200,0000%00:00 (00:00)
83 Armada 2526 Gold Edition Feb 28, 2013 $19.99N/A (N/A/66%)50,000 .. 100,0000%00:00 (00:00)
84 Arma Tactics Oct 1, 2013 $8.99N/A (N/A/47%)200,000 .. 500,0000%00:00 (00:00)
85 Anodyne Mar 22, 2013 $9.99N/A (N/A/75%)100,000 .. 200,0000%00:00 (00:00)
86 Sang-Froid - Tales of Werewolves Apr 5, 2013 FreeN/A (N/A/79%)200,000 .. 500,0000%00:00 (00:00)
87 Eador: Genesis Oct 14, 2013 $5.99N/A (N/A)50,000 .. 100,0000%00:00 (00:00)
88 Scourge: Outbreak Apr 2, 2014 $5.99N/A (N/A)100,000 .. 200,0000%00:00 (00:00)
89 Horizon Feb 6, 2014 $7.49N/A (N/A/58%)50,000 .. 100,0000%00:00 (00:00)
90 March of the Eagles Feb 18, 2013 $19.99N/A (N/A/71%)50,000 .. 100,0000%00:00 (00:00)
91 WARSHIFT Oct 12, 2016 $9.99N/A (N/A)20,000 .. 50,0000%00:00 (00:00)
92 Lost Planet: Extreme Condition Jun 26, 2007 $14.99N/A (N/A/66%)200,000 .. 500,0000%00:00 (00:00)
93 Kidnapped Aug 4, 2015 $2.99N/A (N/A)100,000 .. 200,0000%00:00 (00:00)
94 Tom Clancy's EndWar Feb 25, 2009 $9.99N/A (N/A/68%)100,000 .. 200,0000%00:00 (00:00)
95 Square Brawl Oct 22, 2015 $4.99N/A (N/A)0 .. 20,0000%00:00 (00:00)
96 Warhammer 40,000: Dawn of War – Winter Assault Aug 7, 2007 $12.99N/A (N/A)500,000 .. 1,000,0000%00:00 (00:00)
97 Cross of the Dutchman Sep 10, 2015 $8.99N/A (N/A/59%)20,000 .. 50,0000%00:00 (00:00)
98 Spectromancer Feb 11, 2009 $9.99N/A (N/A)20,000 .. 50,0000%00:00 (00:00)
99 Little Big Adventure 2 Oct 20, 2015 $3.99N/A (N/A)20,000 .. 50,0000%00:00 (00:00)
100 Supreme Commander Sep 28, 2011 $12.99N/A (N/A/86%)1,000,000 .. 2,000,0002.94%00:02 (00:00)
101 Zombie Party Jun 10, 2016 $9.99N/A (N/A)100,000 .. 200,0000%00:00 (00:00)
102 Dangerous Waters Feb 7, 2006 $14.99N/A (N/A/82%)50,000 .. 100,0000%00:00 (00:00)
103 Tcheco in the Castle of Lucio Jun 22, 2015 $0.99N/A (N/A)50,000 .. 100,0000%00:00 (00:00)
104 Port Royale 2 Jun 16, 2009 $4.99N/A (N/A/75%)50,000 .. 100,0000%00:00 (00:00)
105 Vampire of the Sands Jul 17, 2015 $4.99N/A (N/A)20,000 .. 50,0000%00:00 (00:00)
106 Fleet Command Oct 26, 2006 $9.99N/A (N/A)50,000 .. 100,0000%00:00 (00:00)
107 Valley Aug 24, 2016 $19.99N/A (N/A)200,000 .. 500,0007.69%00:41 (00:19)
108 Prison Tycoon 3: Lockdown Jan 29, 2008 $9.99N/A (N/A)20,000 .. 50,0000%00:00 (00:00)
109 Vendetta - Curse of Raven's Cry Nov 20, 2015 $29.99N/A (N/A)500,000 .. 1,000,0000%00:00 (00:00)
110 BloodRayne Sep 9, 2003 $9.99N/A (N/A/65%)50,000 .. 100,0000%00:00 (00:00)
111 ESCHATOS Sep 18, 2015 $14.99N/A (N/A)0 .. 20,0000%00:00 (00:00)
112 Hunting Unlimited 2008 Jan 29, 2008 $9.99N/A (N/A)20,000 .. 50,0000%00:00 (00:00)
113 Cashtronauts Sep 1, 2016 $2.99N/A (N/A)0 .. 20,0000%00:00 (00:00)
114 CivCity: Rome Jul 24, 2006 $9.99N/A (N/A/67%)50,000 .. 100,0000%00:00 (00:00)
115 Incandescent Jun 30, 2015 $0.99N/A (N/A)20,000 .. 50,0000%00:00 (00:00)
116 Heroes of Might & Magic V: Hammers of Fate Oct 10, 2008 $9.99N/A (N/A/66%)50,000 .. 100,0000%00:00 (00:00)
117 Rubber and Lead Sep 4, 2015 $4.99N/A (N/A)50,000 .. 100,0000%00:00 (00:00)
118 Civilization IV: Warlords Apr 6, 2007 $4.99N/A (N/A/84%)1,000,000 .. 2,000,0000%00:00 (00:00)
119 Zombie Killtime Aug 4, 2015 $1.99N/A (N/A)0 .. 20,0000%00:00 (00:00)
120 Nuclear Dawn Sep 26, 2011 $9.99N/A (N/A/71%)200,000 .. 500,0000%00:00 (00:00)
121 Toy Odyssey: The Lost and Found Sep 20, 2016 $14.99N/A (N/A/66%)20,000 .. 50,0000%00:00 (00:00)
122 Ghost Master Dec 21, 2006 $4.99N/A (N/A/81%)100,000 .. 200,0000%00:00 (00:00)
123 Dandy: Or a Brief Glimpse Into the Life of the Candy Alchemist Aug 4, 2015 $9.99N/A (N/A)0 .. 20,0000%00:00 (00:00)
124 Rocket Knight May 11, 2010 $14.99N/A (N/A/63%)0 .. 20,0000%00:00 (00:00)
125 Ys VI: The Ark of Napishtim Apr 28, 2015 $19.99N/A (N/A/76%)50,000 .. 100,0000%00:00 (00:00)
126 Magnifico Dec 2, 2014 $4.99N/A (N/A)20,000 .. 50,0000%00:00 (00:00)
127 Foresight Nov 28, 2014 $4.99N/A (N/A)20,000 .. 50,0000%00:00 (00:00)
128 Toren May 11, 2015 $9.99N/A (N/A/57%)50,000 .. 100,0000%00:00 (00:00)
129 Stonerid Aug 15, 2014 $4.99N/A (N/A)20,000 .. 50,0000%00:00 (00:00)
130 Will Fight for Food: Super Actual Sellout: Game of the Hour Apr 22, 2015 $4.99N/A (N/A)20,000 .. 50,0000%00:00 (00:00)
131 Prophour23 Oct 22, 2014 $9.99N/A (N/A)20,000 .. 50,0000%00:00 (00:00)
132 Nux Aug 15, 2014 $6.99N/A (N/A)100,000 .. 200,0000%00:00 (00:00)
133 Malebolgia May 6, 2015 $12.99N/A (N/A)20,000 .. 50,0000%00:00 (00:00)
134 Gold Rush! Classic Jul 25, 2014 $2.99N/A (N/A)200,000 .. 500,0003.7%00:01 (00:00)
135 Platypus II Mar 17, 2007 $6.99N/A (N/A)200,000 .. 500,0000%00:00 (00:00)
136 Airship Dragoon Aug 26, 2014 $19.99N/A (N/A)0 .. 20,0000%00:00 (00:00)
137 Gold Rush! Anniversary Nov 7, 2014 $5.99N/A (N/A)100,000 .. 200,0000%00:00 (00:00)
138 The Nightmare Cooperative Jul 16, 2014 $4.99N/A (N/A)50,000 .. 100,0000%00:00 (00:00)
139 There Came an Echo Feb 24, 2015 $14.99N/A (N/A/58%)20,000 .. 50,0000%00:00 (00:00)
140 Super Trench Attack! Jul 24, 2014 $4.99N/A (N/A)100,000 .. 200,0000%00:00 (00:00)
141 Deadlings: Rotten Edition Nov 11, 2014 $3.99N/A (N/A)50,000 .. 100,0000%00:00 (00:00)
142 Guncraft Aug 9, 2013 $14.99N/A (N/A/73%)100,000 .. 200,0000%00:00 (00:00)
143 Stick it to The Man! Dec 13, 2013 $7.99N/A (N/A/83%)20,000 .. 50,0000%00:00 (00:00)
144 In Verbis Virtus Apr 3, 2015 $19.99N/A (N/A)50,000 .. 100,0000%00:00 (00:00)
145 Master Reboot Oct 29, 2013 $14.99N/A (N/A/59%)50,000 .. 100,0000%00:00 (00:00)
146 Divinity: Dragon Commander Aug 6, 2013 $39.99N/A (N/A)200,000 .. 500,0000%00:00 (00:00)
147 Skyward Collapse May 23, 2013 $4.99N/A (N/A/64%)100,000 .. 200,0000%00:00 (00:00)
148 Sid Meier’s Ace Patrol Aug 27, 2013 $4.99N/A (N/A)500,000 .. 1,000,0000%00:00 (00:00)
149 7 Grand Steps: What Ancients Begat Jun 7, 2013 $19.99N/A (N/A)100,000 .. 200,0000%00:00 (00:00)
150 VelocityUltra Dec 12, 2013 $9.99N/A (N/A)20,000 .. 50,0000%00:00 (00:00)
151 Bleed Jul 3, 2013 $4.99N/A (N/A)100,000 .. 200,0000%00:00 (00:00)
152 ENSLAVED: Odyssey to the West Premium Edition Oct 24, 2013 $19.99N/A (N/A/70%)200,000 .. 500,0000%00:00 (00:00)
153 Wanderlust Adventures Aug 10, 2015 $9.99N/A (N/A)20,000 .. 50,0000%00:00 (00:00)
154 Flashback Oct 1, 2013 $9.99N/A (N/A)20,000 .. 50,0000%00:00 (00:00)
155 Ittle Dew Jul 23, 2013 $9.99N/A (N/A/67%)100,000 .. 200,0000%00:00 (00:00)
156 Lords of the Black Sun Sep 12, 2014 $29.99N/A (N/A)20,000 .. 50,0000%00:00 (00:00)
157 CastleStorm Jul 29, 2013 $9.99N/A (N/A/73%)100,000 .. 200,0000%00:00 (00:00)
158 Chainsaw Warrior Oct 7, 2013 $4.99N/A (N/A)100,000 .. 200,0000%00:00 (00:00)
159 Vector Strain Dec 9, 2015 $4.99N/A (N/A)20,000 .. 50,0000%00:00 (00:00)
160 Code of Princess Apr 14, 2016 $14.99N/A (N/A/53%)20,000 .. 50,0000%00:00 (00:00)
161 The Legend of Dark Witch Dec 1, 2015 $4.99N/A (N/A)20,000 .. 50,0000%00:00 (00:00)
162 Knight Adventure Oct 15, 2015 $0.99N/A (N/A)50,000 .. 100,0000%00:00 (00:00)
163 Dawn of Andromeda May 4, 2017 $29.99N/A (N/A/70%)0 .. 20,0000%00:00 (00:00)
164 Galaxy Admirals Jan 17, 2017 $1.99N/A (N/A)100,000 .. 200,0000%00:00 (00:00)
165 Protoshift Jan 15, 2016 $0.99N/A (N/A)0 .. 20,0000%00:00 (00:00)
166 Junk Jack Nov 30, 2016 $14.99N/A (N/A)20,000 .. 50,0000%00:00 (00:00)
167 Quick Slick Deadly Sep 21, 2015 $0.99N/A (N/A)20,000 .. 50,0000%00:00 (00:00)
168 Corgi Warlock Dec 3, 2015 $1.99N/A (N/A)20,000 .. 50,0000%00:00 (00:00)
169 Reverse Crawl Sep 24, 2015 $5.99N/A (N/A)20,000 .. 50,0000%00:00 (00:00)
170 Monster Monpiece Mar 14, 2017 $9.99N/A (N/A)0 .. 20,0000%00:00 (00:00)
171 The Juicer Sep 6, 2012 $0.59N/A (N/A)20,000 .. 50,0000%00:00 (00:00)
172 Goblin Defenders: Steel‘n’ Wood Aug 21, 2013 $2.99N/A (N/A)20,000 .. 50,0000%00:00 (00:00)
173 The Political Machine 2016 Feb 4, 2016 $9.99N/A (N/A)50,000 .. 100,0000%00:00 (00:00)
174 Gurgamoth Feb 16, 2016 $9.99N/A (N/A)20,000 .. 50,0000%00:00 (00:00)
175 Lethe - Episode One Aug 1, 2016 $14.99N/A (N/A)0 .. 20,0000%00:00 (00:00)
176 Clash of Puppets Dec 16, 2014 $4.99N/A (N/A)0 .. 20,0000%00:00 (00:00)
177 Bet On Soldier Dec 5, 2014 $7.99N/A (N/A)100,000 .. 200,0000%00:00 (00:00)
178 FEIST Jul 23, 2015 $9.99N/A (N/A/65%)20,000 .. 50,0000%00:00 (00:00)
179 Bloodsports.TV Mar 30, 2015 $9.99N/A (N/A/69%)100,000 .. 200,0000%00:00 (00:00)
180 TRON 2.0 Oct 10, 2014 $9.99N/A (N/A/84%)50,000 .. 100,0000%00:00 (00:00)
181 Wickland Feb 6, 2015 $0.99N/A (N/A)50,000 .. 100,0000%00:00 (00:00)
182 Frozen Synapse Prime Nov 14, 2014 $24.99N/A (N/A/83%)100,000 .. 200,0000%00:00 (00:00)
183 War, the Game Jan 12, 2015 $6.99N/A (N/A/65%)20,000 .. 50,0000%00:00 (00:00)
184 BossConstructor Oct 24, 2016 $14.99N/A (N/A)20,000 .. 50,0000%00:00 (00:00)
185 Kalimba Apr 22, 2015 $9.99N/A (N/A/81%)20,000 .. 50,0000%00:00 (00:00)
186 Robotex Nov 19, 2014 $4.99N/A (N/A)200,000 .. 500,0000%00:00 (00:00)
187 Run or Die Dec 11, 2014 $4.99N/A (N/A)20,000 .. 50,0000%00:00 (00:00)
188 Survivor Squad: Gauntlets Nov 16, 2015 $4.99N/A (N/A)20,000 .. 50,0000%00:00 (00:00)
189 The Hive Aug 25, 2016 $14.99N/A (N/A)20,000 .. 50,0000%00:00 (00:00)
190 Fortified Feb 3, 2016 $14.99N/A (N/A)500,000 .. 1,000,0000%00:00 (00:00)
191 Fallen: A2P Protocol Aug 14, 2015 $9.99N/A (N/A)20,000 .. 50,0000%00:00 (00:00)
192 Star Traders: 4X Empires Nov 18, 2014 $9.99N/A (N/A)0 .. 20,0000%00:00 (00:00)
193 Silent Storm Gold Edition Oct 2, 2013 $9.99N/A (N/A/83%)200,000 .. 500,0000%00:00 (00:00)
194 Major Mayhem Feb 24, 2014 $4.99N/A (N/A)20,000 .. 50,0000%00:00 (00:00)
195 PixelJunk Shooter Nov 11, 2013 $8.99N/A (N/A/73%)100,000 .. 200,0000%00:00 (00:00)
196 Platformines Mar 28, 2014 $9.99N/A (N/A/67%)100,000 .. 200,0000%00:00 (00:00)
197 Tank Operations: European Campaign Nov 22, 2013 N/AN/A (N/A)20,000 .. 50,0000%00:00 (00:00)
198 Anomaly Warzone Earth Mobile Campaign Nov 6, 2013 $4.99N/A (N/A)100,000 .. 200,0000%00:00 (00:00)
199 Bedlam Oct 13, 2015 $12.99N/A (N/A/54%)100,000 .. 200,0000%00:00 (00:00)
200 YAIBA: NINJA GAIDEN Z Mar 21, 2014 $29.99N/A (N/A/49%)20,000 .. 50,0000%00:00 (00:00)
201 Last Knight: Rogue Rider Edition Oct 3, 2014 $7.99N/A (N/A)20,000 .. 50,0000%00:00 (00:00)
202 Zombie Tycoon 2: Brainhov's Revenge Dec 9, 2013 $4.99N/A (N/A)50,000 .. 100,0000%00:00 (00:00)
203 Pixel Boy and the Ever Expanding Dungeon May 30, 2014 $0.99N/A (N/A)20,000 .. 50,0000%00:00 (00:00)
204 Dusty Revenge:Co-Op Edition Feb 17, 2014 $14.99N/A (N/A)100,000 .. 200,0000%00:00 (00:00)
205 Unearthed: Trail of Ibn Battuta - Episode 1 - Gold Edition Jan 3, 2014 $4.99N/A (N/A)20,000 .. 50,0000%00:00 (00:00)
206 Hot Tin Roof: The Cat That Wore A Fedora Feb 20, 2015 $14.99N/A (N/A/66%)100,000 .. 200,0000%00:00 (00:00)
207 SPACECOM Sep 17, 2014 $9.99N/A (N/A/68%)100,000 .. 200,0000%00:00 (00:00)
208 MoonBase Commander Feb 6, 2014 $5.99N/A (N/A/77%)20,000 .. 50,0000%00:00 (00:00)
209 Guns n Zombies Oct 30, 2014 $7.99N/A (N/A)100,000 .. 200,0000%00:00 (00:00)
210 Theatre of War 2: Kursk 1943 Jul 9, 2010 $4.99N/A (N/A)50,000 .. 100,0000%00:00 (00:00)
211 Magic Quest May 6, 2016 $1.99N/A (N/A)50,000 .. 100,0000%00:00 (00:00)
212 Disciples III - Renaissance Steam Special Edition Jul 16, 2010 $14.99N/A (N/A/56%)200,000 .. 500,0000%00:00 (00:00)
213 Story Of the Survivor Feb 17, 2016 $4.99N/A (N/A)50,000 .. 100,0000%00:00 (00:00)
214 Making History II: The War of the World Aug 27, 2010 $14.99N/A (N/A/38%)50,000 .. 100,0000%00:00 (00:00)
215 She Wants Me Dead May 13, 2016 $7.99N/A (N/A)20,000 .. 50,0000%00:00 (00:00)
216 Chaser Jul 16, 2010 $4.99N/A (N/A/66%)100,000 .. 200,0000%00:00 (00:00)
217 DreamBreak Jul 21, 2016 $6.99N/A (N/A/46%)20,000 .. 50,0000%00:00 (00:00)
218 Purgatory Jun 22, 2016 $0.99N/A (N/A)100,000 .. 200,0000%00:00 (00:00)
219 King Arthur - The Role-playing Wargame Nov 24, 2009 $9.99N/A (N/A)200,000 .. 500,0000%00:00 (00:00)
220 Rush for Berlin Gold Oct 29, 2009 $4.99N/A (N/A/76%)20,000 .. 50,0000%00:00 (00:00)
221 Revenge of Roger Rouge Apr 22, 2016 $0.99N/A (N/A)20,000 .. 50,0007.14%04:03 (01:21)
222 Elven Legacy Apr 7, 2009 $4.99N/A (N/A/71%)100,000 .. 200,0000%00:00 (00:00)
223 Neon Chrome Apr 28, 2016 $14.99N/A (N/A/74%)200,000 .. 500,0000%00:00 (00:00)
224 Sword of the Stars II: Enhanced Edition Nov 30, 2012 $19.99N/A (N/A/65%)100,000 .. 200,0000%00:00 (00:00)
225 Blade Arcus from Shining: Battle Arena Jul 28, 2016 $29.99N/A (N/A)0 .. 20,0000%00:00 (00:00)
226 Supreme Ruler 2020 Gold Jul 9, 2009 $9.99N/A (N/A/65%)50,000 .. 100,0000%00:00 (00:00)
227 Phoning Home Feb 7, 2017 $19.99N/A (N/A/61%)20,000 .. 50,0000%00:00 (00:00)
228 The Haunted: Hells Reach Oct 24, 2011 $8.99N/A (N/A/51%)50,000 .. 100,0000%00:00 (00:00)
229 Onechanbara Z2: Chaos Jun 2, 2016 $39.99N/A (N/A)20,000 .. 50,0000%00:00 (00:00)
230 Majesty Gold HD Sep 4, 2009 $9.99N/A (N/A)100,000 .. 200,0000%00:00 (00:00)
231 Marvel: Ultimate Alliance 2 Jul 26, 2016 N/AN/A (N/A)0 .. 20,0000%00:00 (00:00)
232 Dead Rising 2: Off the Record Oct 11, 2011 $19.99N/A (N/A/66%)200,000 .. 500,0000%00:00 (00:00)
233 Envoy Mar 17, 2016 $0.49N/A (N/A)20,000 .. 50,0000%00:00 (00:00)
234 Caster Mar 19, 2009 $1.99N/A (N/A)200,000 .. 500,0000%00:00 (00:00)
235 A Blind Legend Apr 7, 2016 $6.99N/A (N/A)0 .. 20,0000%00:00 (00:00)
236 Star Wolves 3: Civil War Mar 2, 2010 $4.99N/A (N/A)100,000 .. 200,0000%00:00 (00:00)
237 GIBZ Apr 7, 2017 $7.99N/A (N/A)20,000 .. 50,0000%00:00 (00:00)
238 LEGO Indiana Jones 2: The Adventure Continues Feb 18, 2010 $19.99N/A (N/A/66%)50,000 .. 100,0000%00:00 (00:00)
239 Star Realms Mar 8, 2016 FreeN/A (N/A)100,000 .. 200,0000%00:00 (00:00)
240 Theatre of War 2: Africa 1943 Jul 9, 2010 $4.99N/A (N/A/63%)100,000 .. 200,0000%00:00 (00:00)
241 Mad Bullets Jun 10, 2016 $2.99N/A (N/A)0 .. 20,0000%00:00 (00:00)
242 Delta Force 2 Oct 31, 1999 $4.99N/A (N/A)20,000 .. 50,0000%00:00 (00:00)
243 Legends of Callasia Jun 10, 2016 $14.99N/A (N/A)50,000 .. 100,0000%00:00 (00:00)
244 Lux Delux May 1, 2015 $9.99N/A (N/A)50,000 .. 100,0000%00:00 (00:00)
245 Death Ray Manta SE Sep 17, 2015 $1.99N/A (N/A)20,000 .. 50,0000%00:00 (00:00)
246 Samudai Feb 9, 2015 $0.99N/A (N/A)50,000 .. 100,0000%00:00 (00:00)
247 Headlander Jul 25, 2016 $19.99N/A (N/A/74%)100,000 .. 200,0000%00:00 (00:00)
248 Synonymy Mar 5, 2015 $1.99N/A (N/A)20,000 .. 50,0000%00:00 (00:00)
249 Shadows of War Jan 2, 2015 $2.99N/A (N/A)20,000 .. 50,0000%00:00 (00:00)
250 Outcast 1.1 Dec 18, 2014 $5.99N/A (N/A)50,000 .. 100,0000%00:00 (00:00)
251 Armed with Wings: Rearmed Jun 1, 2017 $9.99N/A (N/A)20,000 .. 50,00033.33%00:09 (00:04)
252 Velocity 2X Aug 19, 2015 $19.99N/A (N/A)50,000 .. 100,0000%00:00 (00:00)
253 Stay Dead Evolution Feb 4, 2015 $5.99N/A (N/A)20,000 .. 50,0000%00:00 (00:00)
254 Flywrench Aug 24, 2015 $6.99N/A (N/A)0 .. 20,0000%00:00 (00:00)
255 Super Cyborg Jul 8, 2015 $4.99N/A (N/A)20,000 .. 50,0000%00:00 (00:00)
256 Star Hammer: The Vanguard Prophecy Jun 4, 2015 $19.99N/A (N/A/69%)0 .. 20,0000%00:00 (00:00)
257 Dustoff Heli Rescue Mar 6, 2015 $3.99N/A (N/A)20,000 .. 50,0000%00:00 (00:00)
258 Strategy & Tactics: Wargame Collection Apr 22, 2016 $9.99N/A (N/A)50,000 .. 100,0000%00:00 (00:00)
259 HitBox Jan 30, 2017 FreeN/A (N/A)20,000 .. 50,0000%00:00 (00:00)
260 Urja Jan 9, 2015 $9.99N/A (N/A)20,000 .. 50,0000%00:00 (00:00)
261 Time Rifters Oct 21, 2014 $9.99N/A (N/A)0 .. 20,0000%00:00 (00:00)
262 Spider: Rite of the Shrouded Moon Aug 6, 2015 $9.99N/A (N/A)20,000 .. 50,0000%00:00 (00:00)
263 Ku: Shroud of the Morrigan Mar 17, 2014 $4.99N/A (N/A)20,000 .. 50,0000%00:00 (00:00)
264 Interplanetary May 12, 2015 N/AN/A (N/A)100,000 .. 200,0000%00:00 (00:00)
265 Shadow Blade: Reload Aug 10, 2015 $9.99N/A (N/A/70%)20,000 .. 50,0000%00:00 (00:00)
266 Deadly 30 Jan 8, 2014 $4.99N/A (N/A)100,000 .. 200,0000%00:00 (00:00)
267 The Last Federation Apr 18, 2014 $19.99N/A (N/A/72%)50,000 .. 100,0000%00:00 (00:00)
268 Meridian: New World Apr 4, 2014 $6.99N/A (N/A/43%)100,000 .. 200,0000%00:00 (00:00)
269 Graviteam Tactics: Operation Star Feb 11, 2014 $29.99N/A (N/A)50,000 .. 100,0000%00:00 (00:00)
270 Ground Pounders Jul 15, 2014 $4.99N/A (N/A)0 .. 20,0000%00:00 (00:00)
271 Z Steel Soldiers Aug 1, 2014 $12.99N/A (N/A)50,000 .. 100,0000%00:00 (00:00)
272 Gun Metal Jan 16, 2014 $2.99N/A (N/A)200,000 .. 500,0000%00:00 (00:00)
273 Z Jul 4, 2014 $6.99N/A (N/A)100,000 .. 200,0000%00:00 (00:00)
274 Antisquad May 22, 2014 $5.99N/A (N/A)50,000 .. 100,0000%00:00 (00:00)
275 Battle Group 2 Jun 13, 2014 $7.99N/A (N/A)50,000 .. 100,0000%00:00 (00:00)
276 Meltdown Jun 5, 2014 $6.99N/A (N/A)100,000 .. 200,0000%00:00 (00:00)
277 RIVE: Wreck, Hack, Die, Retry! Sep 13, 2016 $14.99N/A (N/A)200,000 .. 500,0000%00:00 (00:00)
278 Sengoku Sep 15, 2011 $1.99N/A (N/A/70%)100,000 .. 200,0000%00:00 (00:00)
279 Cemetery Warrior 3 Feb 3, 2017 $0.99N/A (N/A)50,000 .. 100,0000%00:00 (00:00)
280 Age of Wonders Oct 2010 $5.99N/A (N/A)100,000 .. 200,0000%00:00 (00:00)
281 Sorcerer King: Rivals Sep 22, 2016 $19.99N/A (N/A)20,000 .. 50,0000%00:00 (00:00)
282 Supreme Ruler: Cold War Jul 29, 2011 $9.99N/A (N/A/63%)20,000 .. 50,0000%00:00 (00:00)
283 rooMaze Mar 3, 2017 $1.99N/A (N/A)100,000 .. 200,0000%00:00 (00:00)
284 Age of Wonders Shadow Magic Oct 2010 $9.99N/A (N/A/82%)100,000 .. 200,0000%00:00 (00:00)
285 Bulletstorm: Full Clip Edition Apr 7, 2017 $39.99N/A (N/A/76%)100,000 .. 200,0000%00:00 (00:00)
286 RISK: Factions Mar 8, 2011 $9.99N/A (N/A/77%)100,000 .. 200,0000%00:00 (00:00)
287 Pain Train Jan 11, 2017 $4.99N/A (N/A)50,000 .. 100,0000%00:00 (00:00)
288 Monday Night Combat Jan 24, 2011 $4.99N/A (N/A/82%)200,000 .. 500,0000%00:00 (00:00)
289 Star Project Aug 4, 2016 $3.99N/A (N/A)20,000 .. 50,0000%00:00 (00:00)
290 Greed Corp Dec 10, 2010 $9.99N/A (N/A/76%)200,000 .. 500,0000%00:00 (00:00)
291 Slash or Die Jun 3, 2016 $2.99N/A (N/A)20,000 .. 50,0000%00:00 (00:00)
292 Swords and Soldiers HD Dec 2, 2010 $9.99N/A (N/A)20,000 .. 50,0000%00:00 (00:00)
293 Battle Time Sep 29, 2016 $0.99N/A (N/A)50,000 .. 100,0000%00:00 (00:00)
294 Atom Zombie Smasher Mar 14, 2011 $4.99N/A (N/A/75%)200,000 .. 500,0000%00:00 (00:00)
295 Mad Combat Marines Jul 13, 2016 $0.99N/A (N/A)50,000 .. 100,0000%00:00 (00:00)
296 Delve Deeper Sep 24, 2010 $4.99N/A (N/A)50,000 .. 100,0000%00:00 (00:00)
297 BitMaster Oct 12, 2016 $2.99N/A (N/A)100,000 .. 200,0000%00:00 (00:00)
298 Patrician IV - Steam Special Edition Sep 17, 2010 $14.99N/A (N/A/66%)100,000 .. 200,0000%00:00 (00:00)
299 Syrian Warfare Feb 21, 2017 $13.99N/A (N/A)200,000 .. 500,0000%00:00 (00:00)
300 Men of War: Vietnam Sep 8, 2011 $7.99N/A (N/A/68%)200,000 .. 500,0000%00:00 (00:00)
301 Toadled Sep 22, 2016 $0.99N/A (N/A)50,000 .. 100,0000%00:00 (00:00)
302 Dungeons Feb 10, 2011 $9.99N/A (N/A/65%)200,000 .. 500,0000%00:00 (00:00)
303 Mr. Shifty Apr 13, 2017 $14.99N/A (N/A)100,000 .. 200,0000%00:00 (00:00)
304 Carrier Command: Gaea Mission Sep 28, 2012 $32.99N/A (N/A/60%)200,000 .. 500,0000%00:00 (00:00)
305 VR Journey Dec 15, 2016 $3.99N/A (N/A)20,000 .. 50,0000%00:00 (00:00)
306 A Game of Thrones - Genesis Sep 28, 2011 $9.99N/A (N/A)100,000 .. 200,0000%00:00 (00:00)
307 Crazy Forest Jul 6, 2016 $4.99N/A (N/A)100,000 .. 200,0000%00:00 (00:00)
308 Star Ruler Sep 20, 2010 $9.99N/A (N/A)100,000 .. 200,0000%00:00 (00:00)
309 Mysterium: A Psychic Clue Game Jan 12, 2017 $6.99N/A (N/A)50,000 .. 100,0000%00:00 (00:00)
310 Power of Defense Aug 4, 2010 $9.99N/A (N/A)0 .. 20,0000%00:00 (00:00)
311 Woodle Tree 2: Worlds Sep 16, 2016 $3.99N/A (N/A)50,000 .. 100,0000%00:00 (00:00)
312 Kick Ass Commandos Nov 17, 2016 $9.99N/A (N/A)20,000 .. 50,0000%00:00 (00:00)
313 Planet of the Eyes Aug 24, 2015 $9.99N/A (N/A/66%)50,000 .. 100,0000%00:00 (00:00)
314 Assassin’s Creed Chronicles: India Jan 12, 2016 $9.99N/A (N/A)50,000 .. 100,0000%00:00 (00:00)
315 Cultures - 8th Wonder of the World Mar 26, 2015 $4.99N/A (N/A)100,000 .. 200,0000%00:00 (00:00)
316 Heaven Forest NIGHTS Mar 13, 2017 $0.99N/A (N/A)200,000 .. 500,0000%00:00 (00:00)
317 Urban Empire Jan 20, 2017 $29.99N/A (N/A/62%)100,000 .. 200,0000%00:00 (00:00)
318 Tiamat X May 29, 2015 $1.99N/A (N/A)50,000 .. 100,0000%00:00 (00:00)
319 Albino Lullaby: Episode 1 Sep 15, 2015 $9.99N/A (N/A)20,000 .. 50,0000%00:00 (00:00)
320 CRYPTARK Jun 20, 2017 $14.99N/A (N/A/80%)100,000 .. 200,0000%00:00 (00:00)
321 Dungeon Warfare Nov 4, 2015 $9.99N/A (N/A)50,000 .. 100,0000%00:00 (00:00)
322 Rise & Shine Jan 13, 2017 $14.99N/A (N/A)50,000 .. 100,0000%00:00 (00:00)
323 Commander Cool 2 Dec 17, 2015 $2.99N/A (N/A)50,000 .. 100,0000%00:00 (00:00)
324 Hyperspace Pinball Sep 30, 2015 $2.99N/A (N/A)0 .. 20,0000%00:00 (00:00)
325 Cuban Missile Crisis May 6, 2005 $4.99N/A (N/A)20,000 .. 50,0000%00:00 (00:00)
326 Burstfire Sep 24, 2015 N/AN/A (N/A)50,000 .. 100,0000%00:00 (00:00)
327 Interloper May 21, 2015 FreeN/A (N/A/77%)50,000 .. 100,0000%00:00 (00:00)
328 Supercharged Robot VULKAISER Jun 4, 2015 $2.49N/A (N/A)20,000 .. 50,0000%00:00 (00:00)

Tags over time:

Access restricted.

This feature is only available to users with special access rights. Sorry.

If you want to proceed, you need to register or log in first and then back Steam Spy on Patreon. Look for Indie or Pro pledge.

Don't forget to use the same email as on Steam Spy!

Owners of this game also own:

Access restricted.

This feature is only available to users with special access rights. Sorry.

If you want to proceed, you need to register or log in first and then back Steam Spy on Patreon. Look for Indie or Pro pledge.

Don't forget to use the same email as on Steam Spy!

Playtime distribution:

Access restricted.

This feature is only available to users with special access rights. Sorry.

If you want to proceed, you need to register or log in first and then back Steam Spy on Patreon. Look for Indie or Pro pledge.

Don't forget to use the same email as on Steam Spy!

Playtime (2 weeks):

Access restricted.

This feature is only available to users with special access rights. Sorry.

If you want to proceed, you need to register or log in first and then back Steam Spy on Patreon. Look for Indie or Pro pledge.

Don't forget to use the same email as on Steam Spy!

User reviews:

Login required.

Please register or log in to see this information.